createdAt,value
2022-10-31T00:14:54.380Z,28.10
2022-10-31T00:17:22.219Z,28.10
2022-10-31T00:19:49.994Z,28.10
2022-10-31T00:22:17.913Z,28.10
2022-10-31T00:24:45.680Z,28.10
2022-10-31T00:27:13.517Z,28.10
2022-10-31T00:29:41.254Z,28.00
2022-10-31T00:32:10.367Z,28.00
2022-10-31T00:34:38.119Z,28.00
2022-10-31T00:37:06.040Z,28.00
2022-10-31T00:39:33.848Z,28.00
2022-10-31T00:42:01.610Z,28.00
2022-10-31T00:44:29.379Z,28.00
2022-10-31T00:46:57.154Z,28.00
2022-10-31T00:49:26.242Z,28.00
2022-10-31T00:51:54.004Z,28.00
2022-10-31T00:54:21.872Z,28.00
2022-10-31T00:56:49.626Z,28.00
2022-10-31T00:59:17.357Z,27.90
2022-10-31T01:01:45.247Z,27.90
2022-10-31T01:04:13.160Z,27.90
2022-10-31T01:06:42.712Z,27.90
2022-10-31T01:09:10.742Z,27.90
2022-10-31T01:11:38.486Z,27.90
2022-10-31T01:14:06.250Z,27.90
2022-10-31T01:16:34.097Z,27.90
2022-10-31T01:19:01.872Z,27.90
2022-10-31T01:21:31.304Z,27.90
2022-10-31T01:24:02.962Z,27.90
2022-10-31T01:26:33.038Z,27.90
2022-10-31T01:29:03.776Z,27.80
2022-10-31T01:31:35.127Z,27.80
2022-10-31T01:34:03.894Z,27.80
2022-10-31T01:36:34.921Z,27.80
2022-10-31T01:39:08.309Z,27.80
2022-10-31T01:41:38.774Z,27.80
2022-10-31T01:44:51.671Z,27.80
2022-10-31T01:47:26.632Z,27.80
2022-10-31T01:49:59.549Z,27.80
2022-10-31T01:52:32.927Z,27.80
2022-10-31T01:55:06.977Z,27.80
2022-10-31T01:57:37.334Z,27.70
2022-10-31T02:00:10.884Z,27.70
2022-10-31T02:02:39.139Z,27.70
2022-10-31T02:05:12.916Z,27.70
2022-10-31T02:07:46.590Z,27.70
2022-10-31T02:10:16.618Z,27.70
2022-10-31T02:12:46.019Z,27.70
2022-10-31T02:15:13.827Z,27.70
2022-10-31T02:17:41.682Z,27.70
2022-10-31T02:20:18.221Z,27.70
2022-10-31T02:23:22.327Z,27.70
2022-10-31T02:26:34.772Z,27.70
2022-10-31T02:29:54.243Z,27.70
2022-10-31T02:32:30.240Z,27.70
2022-10-31T02:35:06.747Z,27.70
2022-10-31T02:37:44.237Z,27.60
2022-10-31T02:40:21.182Z,27.60
2022-10-31T02:42:54.932Z,27.60
2022-10-31T02:45:31.300Z,27.60
2022-10-31T02:48:05.566Z,27.60
2022-10-31T02:50:39.809Z,27.60
2022-10-31T02:53:07.944Z,27.60
2022-10-31T02:55:54.062Z,27.60
2022-10-31T02:58:26.491Z,27.60
2022-10-31T03:01:39.850Z,27.50
2022-10-31T03:04:46.137Z,27.50
2022-10-31T03:07:27.813Z,27.50
2022-10-31T03:10:10.516Z,27.50
2022-10-31T03:12:48.798Z,27.50
2022-10-31T03:15:25.018Z,27.50
2022-10-31T03:18:00.873Z,27.50
2022-10-31T03:20:36.778Z,27.50
2022-10-31T03:23:08.286Z,27.50
2022-10-31T03:25:39.210Z,27.50
2022-10-31T03:28:08.109Z,27.50
2022-10-31T03:30:43.074Z,27.50
2022-10-31T03:33:18.589Z,27.50
2022-10-31T03:35:52.059Z,27.50
2022-10-31T03:38:21.876Z,27.50
2022-10-31T03:40:53.686Z,27.40
2022-10-31T03:43:28.816Z,27.40
2022-10-31T03:45:57.554Z,27.40
2022-10-31T03:48:26.840Z,27.40
2022-10-31T03:51:08.333Z,27.40
2022-10-31T03:53:41.106Z,27.40
2022-10-31T03:56:19.955Z,27.40
2022-10-31T03:58:59.599Z,27.40
2022-10-31T04:01:31.205Z,27.40
2022-10-31T04:04:00.965Z,27.40
2022-10-31T04:06:32.791Z,27.40
2022-10-31T04:09:06.594Z,27.40
2022-10-31T04:11:42.584Z,27.40
2022-10-31T04:14:12.941Z,27.40
2022-10-31T04:16:44.852Z,27.30
2022-10-31T04:19:13.740Z,27.30
2022-10-31T04:21:44.218Z,27.30
2022-10-31T04:24:12.340Z,27.30
2022-10-31T04:26:40.120Z,27.30
2022-10-31T04:29:07.926Z,27.30
2022-10-31T04:31:35.668Z,27.30
2022-10-31T04:34:03.484Z,27.30
2022-10-31T04:36:31.269Z,27.30
2022-10-31T04:39:00.389Z,27.30
2022-10-31T04:41:28.138Z,27.30
2022-10-31T04:43:56.550Z,27.30
2022-10-31T04:46:24.458Z,27.30
2022-10-31T04:48:52.207Z,27.20
2022-10-31T04:51:19.962Z,27.20
2022-10-31T04:53:47.767Z,27.20
2022-10-31T04:56:16.990Z,27.20
2022-10-31T04:58:44.745Z,27.20
2022-10-31T05:01:12.799Z,27.20
2022-10-31T05:03:41.180Z,27.20
2022-10-31T05:06:09.681Z,27.20
2022-10-31T05:08:37.450Z,27.20
2022-10-31T05:11:06.158Z,27.20
2022-10-31T05:13:35.285Z,27.20
2022-10-31T05:16:03.774Z,27.20
2022-10-31T05:18:31.709Z,27.20
2022-10-31T05:20:59.482Z,27.20
2022-10-31T05:23:27.262Z,27.20
2022-10-31T05:25:55.014Z,27.20
2022-10-31T05:28:22.813Z,27.20
2022-10-31T05:30:52.189Z,27.10
2022-10-31T05:33:19.946Z,27.10
2022-10-31T05:35:47.697Z,27.10
2022-10-31T05:38:15.524Z,27.10
2022-10-31T05:40:43.258Z,27.10
2022-10-31T05:43:11.016Z,27.10
2022-10-31T05:45:38.759Z,27.10
2022-10-31T05:48:08.186Z,27.10
2022-10-31T05:50:35.939Z,27.10
2022-10-31T05:53:06.778Z,27.10
2022-10-31T05:55:34.951Z,27.10
2022-10-31T05:58:03.028Z,27.10
2022-10-31T06:00:31.050Z,27.10
2022-10-31T06:03:02.833Z,27.10
2022-10-31T06:05:33.080Z,27.10
2022-10-31T06:08:01.393Z,27.10
2022-10-31T06:10:29.908Z,27.10
2022-10-31T06:12:57.729Z,27.10
2022-10-31T06:15:25.999Z,27.00
2022-10-31T06:18:03.453Z,27.00
2022-10-31T06:20:33.742Z,27.00
2022-10-31T06:23:02.466Z,27.00
2022-10-31T06:25:30.703Z,27.00
2022-10-31T06:27:58.500Z,27.00
2022-10-31T06:30:26.642Z,27.00
2022-10-31T06:32:54.447Z,27.00
2022-10-31T06:35:22.235Z,27.00
2022-10-31T06:37:55.717Z,27.00
2022-10-31T06:40:24.273Z,27.00
2022-10-31T06:42:59.131Z,27.00
2022-10-31T06:45:27.209Z,27.00
2022-10-31T06:50:43.557Z,27.00
2022-10-31T06:53:12.941Z,27.00
2022-10-31T06:55:40.870Z,27.00
2022-10-31T06:58:11.364Z,27.00
2022-10-31T07:00:39.780Z,27.00
2022-10-31T07:03:12.442Z,27.00
2022-10-31T07:05:40.596Z,27.00
2022-10-31T07:08:11.149Z,27.00
2022-10-31T07:10:42.925Z,27.00
2022-10-31T07:13:15.076Z,27.00
2022-10-31T07:15:45.403Z,27.00
2022-10-31T07:18:14.489Z,27.00
2022-10-31T07:20:42.405Z,27.10
2022-10-31T07:23:11.898Z,27.10
2022-10-31T07:25:41.679Z,27.10
2022-10-31T07:28:10.286Z,27.10
2022-10-31T07:30:38.490Z,27.10
2022-10-31T07:33:07.519Z,27.10
2022-10-31T07:35:35.776Z,27.20
2022-10-31T07:38:11.438Z,27.20
2022-10-31T07:40:40.993Z,27.20
2022-10-31T07:43:14.101Z,27.20
2022-10-31T07:45:42.812Z,27.20
2022-10-31T07:48:10.653Z,27.20
2022-10-31T07:50:38.480Z,27.20
2022-10-31T07:53:08.745Z,27.20
2022-10-31T07:55:37.358Z,27.30
2022-10-31T07:58:08.798Z,27.30
2022-10-31T08:00:38.754Z,27.30
2022-10-31T08:03:09.103Z,27.30
2022-10-31T08:05:37.429Z,27.30
2022-10-31T08:08:06.180Z,27.30
2022-10-31T08:10:35.242Z,27.30
2022-10-31T08:13:07.185Z,27.30
2022-10-31T08:15:38.936Z,27.40
2022-10-31T08:18:07.338Z,27.40
2022-10-31T08:20:35.342Z,27.40
2022-10-31T08:23:06.638Z,27.40
2022-10-31T08:25:38.959Z,27.40
2022-10-31T08:28:10.545Z,27.40
2022-10-31T08:30:39.962Z,27.50
2022-10-31T08:33:13.052Z,27.50
2022-10-31T08:35:41.543Z,27.50
2022-10-31T08:38:12.205Z,27.50
2022-10-31T08:40:40.918Z,27.50
2022-10-31T08:43:14.455Z,27.50
2022-10-31T08:45:44.004Z,27.50
2022-10-31T08:48:14.760Z,27.50
2022-10-31T08:50:43.748Z,27.50
2022-10-31T08:53:15.418Z,27.50
2022-10-31T08:55:44.963Z,27.50
2022-10-31T08:58:16.690Z,27.50
2022-10-31T09:00:45.066Z,27.50
2022-10-31T09:03:15.376Z,27.50
2022-10-31T09:05:44.251Z,27.50
2022-10-31T09:08:16.386Z,27.50
2022-10-31T09:10:45.746Z,27.50
2022-10-31T09:13:18.086Z,27.50
2022-10-31T09:15:48.010Z,27.50
2022-10-31T09:18:18.809Z,27.60
2022-10-31T09:20:48.874Z,27.60
2022-10-31T09:23:19.098Z,27.60
2022-10-31T09:25:50.688Z,27.60
2022-10-31T09:28:23.094Z,27.60
2022-10-31T09:30:53.758Z,27.70
2022-10-31T09:33:22.950Z,27.70
2022-10-31T09:35:51.069Z,27.80
2022-10-31T09:38:21.910Z,27.90
2022-10-31T09:40:51.517Z,28.00
2022-10-31T09:43:36.965Z,28.10
2022-10-31T09:46:14.797Z,28.10
2022-10-31T09:49:01.237Z,28.20
2022-10-31T09:51:34.520Z,28.20
2022-10-31T09:54:10.360Z,28.30
2022-10-31T09:56:39.606Z,28.40
2022-10-31T09:59:21.724Z,28.40
2022-10-31T10:01:55.481Z,28.50
2022-10-31T10:04:40.290Z,28.60
2022-10-31T10:07:21.964Z,28.60
2022-10-31T10:09:49.879Z,28.70
2022-10-31T10:12:35.953Z,28.70
2022-10-31T10:15:37.773Z,28.80
2022-10-31T10:18:20.614Z,28.80
2022-10-31T10:21:10.125Z,28.90
2022-10-31T10:23:53.656Z,28.90
2022-10-31T10:26:24.156Z,28.90
2022-10-31T10:28:59.840Z,28.90
2022-10-31T10:31:34.928Z,29.00
2022-10-31T10:34:15.516Z,29.00
2022-10-31T10:36:48.264Z,29.00
2022-10-31T10:39:22.492Z,29.00
2022-10-31T10:42:10.562Z,29.00
2022-10-31T10:44:59.925Z,29.00
2022-10-31T10:47:44.646Z,29.00
2022-10-31T10:50:19.501Z,29.00
2022-10-31T10:53:00.869Z,29.00
2022-10-31T10:55:40.328Z,29.00
2022-10-31T10:58:10.232Z,29.00
2022-10-31T11:00:42.715Z,29.00
2022-10-31T11:03:12.233Z,29.00
2022-10-31T11:05:47.027Z,29.00
2022-10-31T11:08:27.864Z,29.00
2022-10-31T11:11:02.861Z,29.00
2022-10-31T11:13:32.867Z,29.00
2022-10-31T11:16:05.043Z,29.00
2022-10-31T11:18:38.749Z,29.00
2022-10-31T11:21:07.598Z,29.00
2022-10-31T11:23:35.755Z,29.00
2022-10-31T11:26:06.348Z,29.00
2022-10-31T11:28:36.279Z,29.00
2022-10-31T11:31:10.176Z,28.90
2022-10-31T11:33:49.297Z,28.90
2022-10-31T11:36:24.045Z,28.90
2022-10-31T11:38:58.110Z,28.90
2022-10-31T11:41:39.868Z,28.90
2022-10-31T11:44:27.433Z,28.90
2022-10-31T11:47:03.904Z,28.90
2022-10-31T11:49:58.355Z,28.90
2022-10-31T11:52:36.764Z,28.90
2022-10-31T11:55:23.917Z,28.90
2022-10-31T11:57:58.979Z,28.90
2022-10-31T12:00:44.400Z,28.90
2022-10-31T12:03:47.209Z,28.90
2022-10-31T12:06:32.063Z,28.90
2022-10-31T12:09:26.259Z,28.90
2022-10-31T12:12:51.142Z,28.90
2022-10-31T12:15:32.932Z,28.90
2022-10-31T12:18:34.821Z,28.90
2022-10-31T12:21:24.087Z,28.90
2022-10-31T12:24:09.686Z,28.90
2022-10-31T12:26:48.030Z,28.90
2022-10-31T12:29:38.261Z,28.90
2022-10-31T12:32:25.346Z,28.90
2022-10-31T12:35:18.876Z,28.90
2022-10-31T12:38:06.294Z,28.90
2022-10-31T12:40:53.786Z,28.90
2022-10-31T12:43:47.504Z,28.90
2022-10-31T12:46:31.507Z,28.90
2022-10-31T12:49:22.199Z,28.90
2022-10-31T12:52:05.594Z,28.90
2022-10-31T12:54:58.985Z,28.90
2022-10-31T12:57:37.051Z,28.90
2022-10-31T13:00:15.160Z,28.90
2022-10-31T13:02:50.889Z,28.90
2022-10-31T13:05:28.510Z,28.90
2022-10-31T13:08:02.776Z,28.90
2022-10-31T13:10:39.943Z,28.90
2022-10-31T13:13:15.784Z,28.90
2022-10-31T13:15:52.477Z,28.80
2022-10-31T13:18:31.467Z,28.80
2022-10-31T13:21:03.978Z,28.80
2022-10-31T13:23:50.271Z,28.80
2022-10-31T13:26:33.327Z,28.80
2022-10-31T13:29:15.140Z,28.80
2022-10-31T13:31:44.321Z,28.80
2022-10-31T13:34:27.482Z,28.80
2022-10-31T13:37:07.449Z,28.80
2022-10-31T13:39:57.813Z,28.80
2022-10-31T13:42:47.786Z,28.80
2022-10-31T13:45:18.504Z,28.80
2022-10-31T13:47:59.752Z,28.80
2022-10-31T13:50:30.547Z,28.80
2022-10-31T13:53:20.710Z,28.80
2022-10-31T13:55:52.249Z,28.80
2022-10-31T13:58:27.878Z,28.80
2022-10-31T14:01:15.794Z,28.80
2022-10-31T14:04:11.174Z,28.70
2022-10-31T14:06:44.735Z,28.80
2022-10-31T14:09:27.577Z,28.70
2022-10-31T14:11:57.035Z,28.70
2022-10-31T14:14:34.469Z,28.70
2022-10-31T14:17:03.487Z,28.70
2022-10-31T14:19:31.409Z,28.70
2022-10-31T14:21:59.323Z,28.70
2022-10-31T14:24:37.655Z,28.70
2022-10-31T14:27:46.544Z,28.70
2022-10-31T14:30:23.875Z,28.70
2022-10-31T14:32:58.822Z,28.70
2022-10-31T14:35:48.522Z,28.70
2022-10-31T14:38:50.594Z,28.70
2022-10-31T14:41:37.526Z,28.70
2022-10-31T14:44:54.627Z,28.70
2022-10-31T14:47:41.263Z,28.70
2022-10-31T14:50:42.836Z,28.70
2022-10-31T14:53:19.778Z,28.60
2022-10-31T14:55:54.261Z,28.60
2022-10-31T14:58:29.607Z,28.60
2022-10-31T15:00:59.314Z,28.60
2022-10-31T15:03:35.494Z,28.60
2022-10-31T15:06:12.262Z,28.60
2022-10-31T15:08:42.378Z,28.60
2022-10-31T15:11:15.320Z,28.60
2022-10-31T15:13:51.634Z,28.60
2022-10-31T15:16:24.410Z,28.60
2022-10-31T15:18:58.777Z,28.60
2022-10-31T15:21:29.860Z,28.60
2022-10-31T15:24:01.039Z,28.60
2022-10-31T15:26:35.069Z,28.50
2022-10-31T15:29:06.498Z,28.50
2022-10-31T15:31:34.726Z,28.50
2022-10-31T15:34:09.441Z,28.50
2022-10-31T15:36:38.627Z,28.50
2022-10-31T15:39:06.796Z,28.50
2022-10-31T15:41:40.691Z,28.50
2022-10-31T15:44:18.440Z,28.50
2022-10-31T15:46:46.263Z,28.50
2022-10-31T15:49:30.727Z,28.50
2022-10-31T15:52:00.839Z,28.50
2022-10-31T15:54:29.178Z,28.50
2022-10-31T15:56:58.090Z,28.50
2022-10-31T15:59:30.849Z,28.50
2022-10-31T16:02:04.124Z,28.50
2022-10-31T16:04:33.368Z,28.50
2022-10-31T16:07:04.502Z,28.50
2022-10-31T16:09:32.423Z,28.50
2022-10-31T16:12:00.938Z,28.50
2022-10-31T16:14:33.669Z,28.50
2022-10-31T16:17:03.611Z,28.50
2022-10-31T16:19:37.535Z,28.50
2022-10-31T16:22:10.870Z,28.40
2022-10-31T16:24:47.715Z,28.40
2022-10-31T16:27:24.915Z,28.40
2022-10-31T16:29:52.769Z,28.40
2022-10-31T16:32:34.288Z,28.40
2022-10-31T16:35:34.859Z,28.40
2022-10-31T16:38:02.856Z,28.40
2022-10-31T16:40:31.886Z,28.40
2022-10-31T16:43:02.011Z,28.40
2022-10-31T16:45:33.373Z,28.40
2022-10-31T16:48:04.847Z,28.40
2022-10-31T16:50:34.625Z,28.40
2022-10-31T16:53:17.726Z,28.40
2022-10-31T16:55:56.539Z,28.40
2022-10-31T16:58:30.537Z,28.40
2022-10-31T17:00:59.049Z,28.40
2022-10-31T17:03:27.275Z,28.30
2022-10-31T17:05:56.707Z,28.30
2022-10-31T17:08:25.358Z,28.30
2022-10-31T17:10:57.409Z,28.30
2022-10-31T17:13:29.404Z,28.30
2022-10-31T17:16:00.702Z,28.30
2022-10-31T17:18:29.267Z,28.30
2022-10-31T17:21:01.119Z,28.30
2022-10-31T17:23:30.069Z,28.30
2022-10-31T17:25:58.260Z,28.30
2022-10-31T17:28:26.586Z,28.30
2022-10-31T17:30:56.170Z,28.30
2022-10-31T17:33:23.947Z,28.30
2022-10-31T17:35:51.814Z,28.30
2022-10-31T17:38:20.941Z,28.20
2022-10-31T17:43:26.932Z,28.20
2022-10-31T17:45:54.769Z,28.20
2022-10-31T17:48:22.570Z,28.20
2022-10-31T17:50:50.309Z,28.20
2022-10-31T17:53:18.100Z,28.20
2022-10-31T17:55:47.191Z,28.20
2022-10-31T17:58:15.303Z,28.20
2022-10-31T18:00:45.879Z,28.20
2022-10-31T18:03:16.602Z,28.20
2022-10-31T18:05:53.681Z,28.20
2022-10-31T18:08:21.614Z,28.20
2022-10-31T18:10:50.858Z,28.20
2022-10-31T18:13:18.643Z,28.20
2022-10-31T18:15:46.438Z,28.20
2022-10-31T18:18:14.318Z,28.20
2022-10-31T18:20:42.100Z,28.10
2022-10-31T18:23:09.895Z,28.10
2022-10-31T18:25:38.883Z,28.10
2022-10-31T18:28:08.364Z,28.10
2022-10-31T18:30:41.446Z,28.10
2022-10-31T18:33:09.547Z,28.10
2022-10-31T18:35:38.758Z,28.10
2022-10-31T18:38:08.102Z,28.10
2022-10-31T18:40:36.661Z,28.10
2022-10-31T18:43:05.815Z,28.10
2022-10-31T18:45:46.438Z,28.10
2022-10-31T18:48:17.174Z,28.10
2022-10-31T18:50:46.004Z,28.10
2022-10-31T18:53:14.038Z,28.00
2022-10-31T18:55:45.685Z,28.00
2022-10-31T18:58:18.312Z,28.00
2022-10-31T19:00:48.064Z,28.00
2022-10-31T19:03:18.053Z,28.00
2022-10-31T19:05:48.455Z,28.00
2022-10-31T19:08:16.338Z,28.00
2022-10-31T19:10:44.164Z,28.00
2022-10-31T19:13:11.952Z,28.00
2022-10-31T19:15:39.883Z,28.00
2022-10-31T19:18:09.028Z,28.00
2022-10-31T19:20:39.344Z,28.00
2022-10-31T19:23:07.426Z,28.00
2022-10-31T19:25:35.249Z,28.00
2022-10-31T19:28:03.489Z,28.00
2022-10-31T19:30:31.488Z,28.00
2022-10-31T19:32:59.226Z,28.00
2022-10-31T19:35:28.655Z,27.90
2022-10-31T19:37:56.429Z,27.90
2022-10-31T19:40:24.231Z,27.90
2022-10-31T19:42:51.996Z,27.90
2022-10-31T19:45:19.756Z,27.90
2022-10-31T19:47:47.501Z,27.90
2022-10-31T19:50:15.462Z,27.90
2022-10-31T19:52:44.632Z,27.90
2022-10-31T19:55:12.427Z,27.90
2022-10-31T20:00:28.214Z,27.90
2022-10-31T20:02:55.945Z,27.90
2022-10-31T20:05:23.727Z,27.90
2022-10-31T20:07:52.878Z,27.90
2022-10-31T20:10:20.767Z,27.80
2022-10-31T20:12:48.862Z,27.80
2022-10-31T20:15:16.990Z,27.80
2022-10-31T20:17:45.069Z,27.80
2022-10-31T20:20:13.048Z,27.80
2022-10-31T20:22:40.963Z,27.80
2022-10-31T20:25:10.249Z,27.80
2022-10-31T20:27:38.132Z,27.80
2022-10-31T20:30:07.434Z,27.80
2022-10-31T20:32:35.240Z,27.80
2022-10-31T20:35:02.996Z,27.80
2022-10-31T20:37:30.778Z,27.80
2022-10-31T20:39:58.685Z,27.80
2022-10-31T20:42:27.917Z,27.80
2022-10-31T20:44:55.703Z,27.80
2022-10-31T20:47:25.899Z,27.80
2022-10-31T20:49:53.862Z,27.70
2022-10-31T20:52:21.708Z,27.70
2022-10-31T20:54:49.518Z,27.70
2022-10-31T20:57:17.367Z,27.70
2022-10-31T20:59:46.458Z,27.70
2022-10-31T21:02:14.345Z,27.70
2022-10-31T21:04:42.326Z,27.70
2022-10-31T21:07:10.388Z,27.70
2022-10-31T21:09:38.177Z,27.70
2022-10-31T21:12:06.232Z,27.70
2022-10-31T21:14:34.030Z,27.70
2022-10-31T21:17:03.482Z,27.70
2022-10-31T21:19:31.314Z,27.70
2022-10-31T21:21:59.486Z,27.70
2022-10-31T21:24:28.769Z,27.70
2022-10-31T21:26:56.784Z,27.70
2022-10-31T21:29:24.832Z,27.70
2022-10-31T21:31:52.944Z,27.60
2022-10-31T21:34:22.080Z,27.60
2022-10-31T21:36:49.894Z,27.60
2022-10-31T21:39:17.782Z,27.60
2022-10-31T21:41:45.543Z,27.60
2022-10-31T21:44:13.412Z,27.60
2022-10-31T21:46:41.386Z,27.60
2022-10-31T21:49:12.338Z,27.60
2022-10-31T21:51:42.928Z,27.60
2022-10-31T21:54:27.894Z,27.60
2022-10-31T21:56:56.502Z,27.60
2022-10-31T21:59:24.490Z,27.60
2022-10-31T22:01:53.457Z,27.60
2022-10-31T22:04:21.447Z,27.60
2022-10-31T22:06:51.143Z,27.60
2022-10-31T22:09:20.105Z,27.60
2022-10-31T22:11:48.069Z,27.60
2022-10-31T22:14:16.762Z,27.60
2022-10-31T22:16:44.948Z,27.60
2022-10-31T22:19:14.807Z,27.60
2022-10-31T22:21:46.339Z,27.60
2022-10-31T22:24:16.972Z,27.60
2022-10-31T22:26:45.114Z,27.60
2022-10-31T22:29:17.162Z,27.60
2022-10-31T22:31:49.401Z,27.50
2022-10-31T22:34:19.986Z,27.50
2022-10-31T22:36:47.823Z,27.50
2022-10-31T22:39:17.061Z,27.50
2022-10-31T22:41:44.857Z,27.50
2022-10-31T22:44:12.709Z,27.50
2022-10-31T22:46:40.797Z,27.50
2022-10-31T22:49:13.881Z,27.50
2022-10-31T22:51:43.004Z,27.50
2022-10-31T22:54:14.426Z,27.50
2022-10-31T22:56:44.374Z,27.50
2022-10-31T22:59:14.705Z,27.50
2022-10-31T23:01:44.749Z,27.50
2022-10-31T23:04:13.484Z,27.50
2022-10-31T23:06:41.355Z,27.50
2022-10-31T23:09:09.606Z,27.50
2022-10-31T23:11:40.770Z,27.50
2022-10-31T23:14:16.328Z,27.50
2022-10-31T23:16:47.002Z,27.50
2022-10-31T23:19:19.742Z,27.50
2022-10-31T23:21:56.879Z,27.50
2022-10-31T23:24:29.118Z,27.50
2022-10-31T23:27:10.417Z,27.50
2022-10-31T23:29:45.142Z,27.50
2022-10-31T23:32:20.900Z,27.50
2022-10-31T23:34:50.394Z,27.50
2022-10-31T23:37:21.609Z,27.50
2022-10-31T23:39:49.439Z,27.50
2022-10-31T23:42:18.660Z,27.50
2022-10-31T23:44:48.067Z,27.50
2022-10-31T23:47:16.545Z,27.50
2022-10-31T23:49:44.492Z,27.50
2022-10-31T23:52:13.942Z,27.50
2022-10-31T23:54:41.927Z,27.50
2022-10-31T23:57:11.253Z,27.50
2022-10-31T23:59:39.216Z,27.50
